createdAt,value
2022-10-11T00:00:43.022Z,8.65
2022-10-11T00:01:43.068Z,8.57
2022-10-11T00:02:43.009Z,8.56
2022-10-11T00:03:43.022Z,8.56
2022-10-11T00:04:43.040Z,8.56
2022-10-11T00:05:42.980Z,8.57
2022-10-11T00:06:42.961Z,8.57
2022-10-11T00:07:42.950Z,8.62
2022-10-11T00:08:42.943Z,8.63
2022-10-11T00:09:42.930Z,8.65
2022-10-11T00:10:42.970Z,8.63
2022-10-11T00:11:42.909Z,8.65
2022-10-11T00:12:42.899Z,8.65
2022-10-11T00:13:42.888Z,8.67
2022-10-11T00:14:42.882Z,8.68
2022-10-11T00:15:42.860Z,8.68
2022-10-11T00:16:42.909Z,8.67
2022-10-11T00:17:42.840Z,8.63
2022-10-11T00:18:42.841Z,8.60
2022-10-11T00:19:42.818Z,8.59
2022-10-11T00:20:42.839Z,8.56
2022-10-11T00:21:42.797Z,8.53
2022-10-11T00:22:42.816Z,8.47
2022-10-11T00:23:42.768Z,8.44
2022-10-11T00:24:42.769Z,8.39
2022-10-11T00:25:42.779Z,8.37
2022-10-11T00:26:46.601Z,8.35
2022-10-11T00:27:42.743Z,8.29
2022-10-11T00:28:42.760Z,8.26
2022-10-11T00:29:42.706Z,8.21
2022-10-11T00:30:42.737Z,8.16
2022-10-11T00:31:42.708Z,8.13
2022-10-11T00:32:42.678Z,8.12
2022-10-11T00:33:42.659Z,8.10
2022-10-11T00:34:42.658Z,8.10
2022-10-11T00:35:42.646Z,8.10
2022-10-11T00:36:42.679Z,8.12
2022-10-11T00:37:42.618Z,8.13
2022-10-11T00:38:42.638Z,8.12
2022-10-11T00:39:42.599Z,8.13
2022-10-11T00:40:42.617Z,8.13
2022-10-11T00:41:42.577Z,8.13
2022-10-11T00:42:42.739Z,8.12
2022-10-11T00:43:42.557Z,8.13
2022-10-11T00:44:42.547Z,8.12
2022-10-11T00:45:42.536Z,8.12
2022-10-11T00:46:42.530Z,8.10
2022-10-11T00:47:42.507Z,8.12
2022-10-11T00:48:42.526Z,8.13
2022-10-11T00:49:42.489Z,8.16
2022-10-11T00:50:42.487Z,8.17
2022-10-11T00:51:42.536Z,8.14
2022-10-11T00:52:42.457Z,8.16
2022-10-11T00:53:42.450Z,8.13
2022-10-11T00:54:42.438Z,8.10
2022-10-11T00:55:42.426Z,8.06
2022-10-11T00:56:42.438Z,8.06
2022-10-11T00:57:42.437Z,8.05
2022-10-11T00:58:42.399Z,8.05
2022-10-11T00:59:42.406Z,8.05
2022-10-11T01:00:42.377Z,8.05
2022-10-11T01:01:42.475Z,8.06
2022-10-11T01:02:42.394Z,8.05
2022-10-11T01:03:42.356Z,8.02
2022-10-11T01:04:42.335Z,8.02
2022-10-11T01:05:42.317Z,8.01
2022-10-11T01:06:42.376Z,8.01
2022-10-11T01:07:42.296Z,7.98
2022-10-11T01:08:42.313Z,7.96
2022-10-11T01:09:42.288Z,7.95
2022-10-11T01:10:42.294Z,7.96
2022-10-11T01:11:42.271Z,7.96
2022-10-11T01:12:42.268Z,7.94
2022-10-11T01:13:42.265Z,7.94
2022-10-11T01:14:42.224Z,7.96
2022-10-11T01:15:42.225Z,7.99
2022-10-11T01:16:42.205Z,8.01
2022-10-11T01:17:42.184Z,8.04
2022-10-11T01:18:42.182Z,8.04
2022-10-11T01:19:42.188Z,8.02
2022-10-11T01:20:42.157Z,8.04
2022-10-11T01:21:42.154Z,8.02
2022-10-11T01:22:42.168Z,8.02
2022-10-11T01:23:42.154Z,8.01
2022-10-11T01:24:42.123Z,8.01
2022-10-11T01:25:42.111Z,8.01
2022-10-11T01:26:42.111Z,8.01
2022-10-11T01:27:42.083Z,8.02
2022-10-11T01:28:42.197Z,8.02
2022-10-11T01:29:42.069Z,8.02
2022-10-11T01:30:42.061Z,8.01
2022-10-11T01:31:42.033Z,8.01
2022-10-11T01:32:42.039Z,8.04
2022-10-11T01:33:42.020Z,8.04
2022-10-11T01:34:42.031Z,8.05
2022-10-11T01:35:41.993Z,8.05
2022-10-11T01:36:41.985Z,8.02
2022-10-11T01:37:41.973Z,8.01
2022-10-11T01:38:43.692Z,7.98
2022-10-11T01:39:41.949Z,7.98
2022-10-11T01:40:41.955Z,7.98
2022-10-11T01:41:41.953Z,7.98
2022-10-11T01:42:41.923Z,7.95
2022-10-11T01:43:41.912Z,7.92
2022-10-11T01:44:41.950Z,7.92
2022-10-11T01:45:41.912Z,7.91
2022-10-11T01:46:41.883Z,7.92
2022-10-11T01:47:41.862Z,7.91
2022-10-11T01:48:41.869Z,7.88
2022-10-11T01:49:41.879Z,7.88
2022-10-11T01:50:41.839Z,7.88
2022-10-11T01:51:45.210Z,7.88
2022-10-11T01:52:42.819Z,7.87
2022-10-11T01:53:41.804Z,7.86
2022-10-11T01:55:04.367Z,7.86
2022-10-11T01:55:42.832Z,7.86
2022-10-11T01:56:41.781Z,7.83
2022-10-11T01:57:41.752Z,7.80
2022-10-11T01:58:41.752Z,7.77
2022-10-11T01:59:41.799Z,7.71
2022-10-11T02:00:41.723Z,7.68
2022-10-11T02:01:42.011Z,7.64
2022-10-11T02:02:41.711Z,7.68
2022-10-11T02:03:41.691Z,7.66
2022-10-11T02:04:41.691Z,7.66
2022-10-11T02:05:41.671Z,7.66
2022-10-11T02:06:41.819Z,7.64
2022-10-11T02:07:41.653Z,7.61
2022-10-11T02:08:41.640Z,7.60
2022-10-11T02:09:41.631Z,7.57
2022-10-11T02:10:41.630Z,7.54
2022-10-11T02:11:44.849Z,7.49
2022-10-11T02:12:41.599Z,7.44
2022-10-11T02:13:41.591Z,7.42
2022-10-11T02:14:41.588Z,7.39
2022-10-11T02:15:41.568Z,7.40
2022-10-11T02:16:41.578Z,7.40
2022-10-11T02:17:41.581Z,7.43
2022-10-11T02:18:41.540Z,7.43
2022-10-11T02:19:41.720Z,7.44
2022-10-11T02:20:41.519Z,7.43
2022-10-11T02:21:41.499Z,7.43
2022-10-11T02:22:41.497Z,7.39
2022-10-11T02:23:41.478Z,7.39
2022-10-11T02:24:41.499Z,7.34
2022-10-11T02:25:41.518Z,7.31
2022-10-11T02:26:41.451Z,7.29
2022-10-11T02:27:41.529Z,7.26
2022-10-11T02:28:41.521Z,7.24
2022-10-11T02:29:41.417Z,7.24
2022-10-11T02:30:41.409Z,7.19
2022-10-11T02:31:41.388Z,7.16
2022-10-11T02:32:41.393Z,7.13
2022-10-11T02:33:41.377Z,7.11
2022-10-11T02:34:41.390Z,7.08
2022-10-11T02:35:41.348Z,7.08
2022-10-11T02:36:41.342Z,7.07
2022-10-11T02:37:41.327Z,7.07
2022-10-11T02:38:41.348Z,7.06
2022-10-11T02:39:41.327Z,7.07
2022-10-11T02:40:41.352Z,7.08
2022-10-11T02:41:41.277Z,7.11
2022-10-11T02:42:41.279Z,7.15
2022-10-11T02:43:41.264Z,7.18
2022-10-11T02:44:41.258Z,7.21
2022-10-11T02:45:41.304Z,7.22
2022-10-11T02:46:41.237Z,7.22
2022-10-11T02:47:41.232Z,7.25
2022-10-11T02:48:41.218Z,7.25
2022-10-11T02:49:41.268Z,7.25
2022-10-11T02:50:42.079Z,7.24
2022-10-11T02:51:41.187Z,7.26
2022-10-11T02:52:41.176Z,7.28
2022-10-11T02:53:41.168Z,7.29
2022-10-11T02:54:41.147Z,7.33
2022-10-11T02:55:41.166Z,7.36
2022-10-11T02:56:41.126Z,7.36
2022-10-11T02:57:41.109Z,7.39
2022-10-11T02:58:41.114Z,7.40
2022-10-11T02:59:41.096Z,7.42
2022-10-11T03:00:41.087Z,7.42
2022-10-11T03:01:41.180Z,7.42
2022-10-11T03:02:41.065Z,7.39
2022-10-11T03:03:41.046Z,7.39
2022-10-11T03:04:41.045Z,7.39
2022-10-11T03:05:41.024Z,7.42
2022-10-11T03:06:41.043Z,7.40
2022-10-11T03:07:41.047Z,7.42
2022-10-11T03:08:40.995Z,7.42
2022-10-11T03:09:41.013Z,7.43
2022-10-11T03:10:40.974Z,7.44
2022-10-11T03:11:40.955Z,7.44
2022-10-11T03:12:40.955Z,7.46
2022-10-11T03:13:41.004Z,7.43
2022-10-11T03:14:40.946Z,7.42
2022-10-11T03:15:40.935Z,7.42
2022-10-11T03:16:40.914Z,7.42
2022-10-11T03:17:40.894Z,7.43
2022-10-11T03:18:40.885Z,7.44
2022-10-11T03:19:40.926Z,7.47
2022-10-11T03:20:40.931Z,7.49
2022-10-11T03:21:40.855Z,7.50
2022-10-11T03:22:40.844Z,7.52
2022-10-11T03:23:40.832Z,7.54
2022-10-11T03:24:40.853Z,7.54
2022-10-11T03:25:47.863Z,7.54
2022-10-11T03:26:40.814Z,7.55
2022-10-11T03:27:40.800Z,7.55
2022-10-11T03:28:40.861Z,7.54
2022-10-11T03:29:40.768Z,7.54
2022-10-11T03:30:40.826Z,7.50
2022-10-11T03:31:40.751Z,7.50
2022-10-11T03:32:40.745Z,7.52
2022-10-11T03:33:40.730Z,7.52
2022-10-11T03:34:40.742Z,7.55
2022-10-11T03:35:40.711Z,7.57
2022-10-11T03:36:40.730Z,7.54
2022-10-11T03:37:40.730Z,7.50
2022-10-11T03:38:40.684Z,7.47
2022-10-11T03:39:40.660Z,7.47
2022-10-11T03:40:40.692Z,7.46
2022-10-11T03:41:40.639Z,7.47
2022-10-11T03:42:40.691Z,7.49
2022-10-11T03:43:40.619Z,7.50
2022-10-11T03:44:40.611Z,7.52
2022-10-11T03:45:40.608Z,7.55
2022-10-11T03:46:40.630Z,7.55
2022-10-11T03:47:40.581Z,7.54
2022-10-11T03:48:40.570Z,7.55
2022-10-11T03:49:43.585Z,7.54
2022-10-11T03:50:40.586Z,7.52
2022-10-11T03:51:40.559Z,7.54
2022-10-11T03:52:40.528Z,7.54
2022-10-11T03:53:40.519Z,7.57
2022-10-11T03:54:40.538Z,7.58
2022-10-11T03:55:40.501Z,7.61
2022-10-11T03:56:40.480Z,7.64
2022-10-11T03:57:40.500Z,7.66
2022-10-11T03:58:40.470Z,7.66
2022-10-11T03:59:40.501Z,7.64
2022-10-11T04:00:40.437Z,7.64
2022-10-11T04:01:40.483Z,7.58
2022-10-11T04:02:40.409Z,7.55
2022-10-11T04:03:40.406Z,7.52
2022-10-11T04:04:40.428Z,7.54
2022-10-11T04:05:40.385Z,7.55
2022-10-11T04:06:40.395Z,7.57
2022-10-11T04:07:40.371Z,7.60
2022-10-11T04:08:40.433Z,7.58
2022-10-11T04:09:40.356Z,7.52
2022-10-11T04:10:40.377Z,7.44
2022-10-11T04:11:40.318Z,7.34
2022-10-11T04:12:40.317Z,7.25
2022-10-11T04:13:40.305Z,7.21
2022-10-11T04:14:40.327Z,7.18
2022-10-11T04:15:40.294Z,7.19
2022-10-11T04:16:40.298Z,7.22
2022-10-11T04:17:40.287Z,7.24
2022-10-11T04:18:40.240Z,7.22
2022-10-11T04:19:40.277Z,7.29
2022-10-11T04:20:40.217Z,7.42
2022-10-11T04:21:43.583Z,7.52
2022-10-11T04:22:40.231Z,7.66
2022-10-11T04:23:40.187Z,7.73
2022-10-11T04:24:40.173Z,7.73
2022-10-11T04:25:40.218Z,7.74
2022-10-11T04:26:40.156Z,7.74
2022-10-11T04:27:40.216Z,7.68
2022-10-11T04:28:40.263Z,7.64
2022-10-11T04:29:40.127Z,7.62
2022-10-11T04:30:40.114Z,7.64
2022-10-11T04:31:40.203Z,7.68
2022-10-11T04:32:40.087Z,7.69
2022-10-11T04:33:40.084Z,7.68
2022-10-11T04:34:40.106Z,7.68
2022-10-11T04:35:40.063Z,7.68
2022-10-11T04:36:40.051Z,7.66
2022-10-11T04:37:40.035Z,7.66
2022-10-11T04:38:40.031Z,7.66
2022-10-11T04:39:40.015Z,7.68
2022-10-11T04:40:40.113Z,7.71
2022-10-11T04:41:40.005Z,7.71
2022-10-11T04:42:40.025Z,7.73
2022-10-11T04:43:39.976Z,7.73
2022-10-11T04:44:39.993Z,7.77
2022-10-11T04:45:40.002Z,7.78
2022-10-11T04:46:39.975Z,7.81
2022-10-11T04:47:39.935Z,7.86
2022-10-11T04:48:39.945Z,7.94
2022-10-11T04:49:39.903Z,7.95
2022-10-11T04:50:39.893Z,7.91
2022-10-11T04:51:39.891Z,7.84
2022-10-11T04:52:39.876Z,7.78
2022-10-11T04:53:39.903Z,7.76
2022-10-11T04:54:39.854Z,7.74
2022-10-11T04:55:39.880Z,7.71
2022-10-11T04:56:39.834Z,7.69
2022-10-11T04:57:39.838Z,7.64
2022-10-11T04:58:39.846Z,7.58
2022-10-11T04:59:39.803Z,7.54
2022-10-11T05:00:39.791Z,7.50
2022-10-11T05:01:39.907Z,7.43
2022-10-11T05:02:39.766Z,7.37
2022-10-11T05:03:39.794Z,7.36
2022-10-11T05:04:39.742Z,7.34
2022-10-11T05:05:39.785Z,7.31
2022-10-11T05:06:39.765Z,7.24
2022-10-11T05:07:39.713Z,7.21
2022-10-11T05:08:39.702Z,7.22
2022-10-11T05:09:39.691Z,7.28
2022-10-11T05:10:39.673Z,7.31
2022-10-11T05:11:39.673Z,7.33
2022-10-11T05:12:39.702Z,7.34
2022-10-11T05:13:39.921Z,7.34
2022-10-11T05:14:39.652Z,7.36
2022-10-11T05:15:39.632Z,7.37
2022-10-11T05:16:39.614Z,7.39
2022-10-11T05:17:39.611Z,7.36
2022-10-11T05:18:39.598Z,7.31
2022-10-11T05:19:39.624Z,7.24
2022-10-11T05:20:39.572Z,7.18
2022-10-11T05:21:39.571Z,7.15
2022-10-11T05:22:39.551Z,7.15
2022-10-11T05:23:39.572Z,7.15
2022-10-11T05:24:39.552Z,7.15
2022-10-11T05:25:39.519Z,7.16
2022-10-11T05:26:39.512Z,7.15
2022-10-11T05:27:39.501Z,7.15
2022-10-11T05:28:39.598Z,7.15
2022-10-11T05:29:39.480Z,7.13
2022-10-11T05:30:39.470Z,7.15
2022-10-11T05:31:39.451Z,7.18
2022-10-11T05:32:39.430Z,7.19
2022-10-11T05:33:39.439Z,7.18
2022-10-11T05:34:39.490Z,7.16
2022-10-11T05:35:39.411Z,7.15
2022-10-11T05:36:39.400Z,7.10
2022-10-11T05:37:39.395Z,7.07
2022-10-11T05:38:39.385Z,7.06
2022-10-11T05:39:39.370Z,7.06
2022-10-11T05:40:39.498Z,7.10
2022-10-11T05:41:39.390Z,7.10
2022-10-11T05:42:39.331Z,7.13
2022-10-11T05:43:39.329Z,7.15
2022-10-11T05:44:39.310Z,7.19
2022-10-11T05:45:39.319Z,7.21
2022-10-11T05:46:39.331Z,7.22
2022-10-11T05:47:39.289Z,7.22
2022-10-11T05:48:39.269Z,7.21
2022-10-11T05:49:39.283Z,7.18
2022-10-11T05:50:39.289Z,7.11
2022-10-11T05:51:39.285Z,7.08
2022-10-11T05:52:39.231Z,7.06
2022-10-11T05:53:39.245Z,7.06
2022-10-11T05:54:39.198Z,7.03
2022-10-11T05:55:39.203Z,7.03
2022-10-11T05:56:39.253Z,7.01
2022-10-11T05:57:39.167Z,7.01
2022-10-11T05:58:39.198Z,7.01
2022-10-11T05:59:39.147Z,7.03
2022-10-11T06:00:39.139Z,7.04
2022-10-11T06:01:39.250Z,7.06
2022-10-11T06:02:39.129Z,7.06
2022-10-11T06:03:39.137Z,7.06
2022-10-11T06:04:39.096Z,7.03
2022-10-11T06:05:39.084Z,7.04
2022-10-11T06:06:39.107Z,7.03
2022-10-11T06:07:39.057Z,7.01
2022-10-11T06:08:39.047Z,7.00
2022-10-11T06:09:39.076Z,7.03
2022-10-11T06:10:39.041Z,7.04
2022-10-11T06:11:39.065Z,7.10
2022-10-11T06:12:39.008Z,7.11
2022-10-11T06:13:39.029Z,7.16
2022-10-11T06:14:39.084Z,7.18
2022-10-11T06:15:38.979Z,7.22
2022-10-11T06:16:38.968Z,7.25
2022-10-11T06:17:38.956Z,7.28
2022-10-11T06:18:38.978Z,7.36
2022-10-11T06:19:38.977Z,7.46
2022-10-11T06:20:38.928Z,7.54
2022-10-11T06:21:38.916Z,7.55
2022-10-11T06:22:38.946Z,7.52
2022-10-11T06:23:38.906Z,7.46
2022-10-11T06:24:38.886Z,7.40
2022-10-11T06:25:38.963Z,7.33
2022-10-11T06:26:40.626Z,7.28
2022-10-11T06:27:38.864Z,7.24
2022-10-11T06:28:38.916Z,7.19
2022-10-11T06:29:38.833Z,7.18
2022-10-11T06:30:38.816Z,7.16
2022-10-11T06:31:38.816Z,7.15
2022-10-11T06:32:38.824Z,7.11
2022-10-11T06:33:38.803Z,7.07
2022-10-11T06:34:38.785Z,7.06
2022-10-11T06:35:38.797Z,7.03
2022-10-11T06:36:38.755Z,7.04
2022-10-11T06:37:38.754Z,7.07
2022-10-11T06:38:43.829Z,7.13
2022-10-11T06:39:39.835Z,7.22
2022-10-11T06:40:38.706Z,7.29
2022-10-11T06:41:38.715Z,7.36
2022-10-11T06:42:38.707Z,7.43
2022-10-11T06:43:38.687Z,7.44
2022-10-11T06:44:38.706Z,7.49
2022-10-11T06:45:38.990Z,7.52
2022-10-11T06:46:38.674Z,7.55
2022-10-11T06:47:38.693Z,7.55
2022-10-11T06:48:38.622Z,7.57
2022-10-11T06:49:38.613Z,7.60
2022-10-11T06:50:58.663Z,7.61
2022-10-11T06:51:39.613Z,7.62
2022-10-11T06:52:38.580Z,7.64
2022-10-11T06:53:38.573Z,7.69
2022-10-11T06:54:43.921Z,7.71
2022-10-11T06:55:39.658Z,7.76
2022-10-11T06:56:38.613Z,7.73
2022-10-11T06:57:38.572Z,7.74
2022-10-11T06:58:38.516Z,7.76
2022-10-11T06:59:38.503Z,7.77
2022-10-11T07:00:38.549Z,7.76
2022-10-11T07:01:38.649Z,7.76
2022-10-11T07:02:38.475Z,7.77
2022-10-11T07:03:38.463Z,7.81
2022-10-11T07:04:38.452Z,7.84
2022-10-11T07:05:38.454Z,7.88
2022-10-11T07:06:43.691Z,7.92
2022-10-11T07:07:38.432Z,7.98
2022-10-11T07:08:38.419Z,8.02
2022-10-11T07:09:38.419Z,8.05
2022-10-11T07:10:38.381Z,8.09
2022-10-11T07:11:38.424Z,8.10
2022-10-11T07:12:38.523Z,8.12
2022-10-11T07:13:38.368Z,8.14
2022-10-11T07:14:38.340Z,8.14
2022-10-11T07:15:38.357Z,8.21
2022-10-11T07:16:38.337Z,8.24
2022-10-11T07:17:38.315Z,8.29
2022-10-11T07:18:38.500Z,8.31
2022-10-11T07:19:38.291Z,8.32
2022-10-11T07:20:38.278Z,8.32
2022-10-11T07:21:38.269Z,8.31
2022-10-11T07:22:38.260Z,8.29
2022-10-11T07:23:38.541Z,8.29
2022-10-11T07:24:38.238Z,8.29
2022-10-11T07:25:38.219Z,8.28
2022-10-11T07:26:39.338Z,8.28
2022-10-11T07:27:38.210Z,8.31
2022-10-11T07:28:38.251Z,8.34
2022-10-11T07:29:38.209Z,8.37
2022-10-11T07:30:38.166Z,8.38
2022-10-11T07:31:38.208Z,8.37
2022-10-11T07:32:38.149Z,8.37
2022-10-11T07:33:38.140Z,8.37
2022-10-11T07:34:38.250Z,8.35
2022-10-11T07:35:38.194Z,8.35
2022-10-11T07:36:38.111Z,8.37
2022-10-11T07:37:38.098Z,8.37
2022-10-11T07:38:38.128Z,8.38
2022-10-11T07:39:38.087Z,8.39
2022-10-11T07:40:38.077Z,8.42
2022-10-11T07:41:41.819Z,8.47
2022-10-11T07:42:39.047Z,8.50
2022-10-11T07:43:38.050Z,8.53
2022-10-11T07:44:38.228Z,8.59
2022-10-11T07:45:38.019Z,8.62
2022-10-11T07:46:38.055Z,8.65
2022-10-11T07:47:37.990Z,8.70
2022-10-11T07:48:38.007Z,8.71
2022-10-11T07:49:38.006Z,8.72
2022-10-11T07:50:37.959Z,8.75
2022-10-11T07:51:37.948Z,8.80
2022-10-11T07:52:37.939Z,8.86
2022-10-11T07:53:37.920Z,8.90
2022-10-11T07:54:37.898Z,8.92
2022-10-11T07:55:37.946Z,8.93
2022-10-11T07:56:37.885Z,8.95
2022-10-11T07:57:37.878Z,8.96
2022-10-11T07:58:37.869Z,8.98
2022-10-11T07:59:37.858Z,8.99
2022-10-11T08:00:37.932Z,8.99
2022-10-11T08:01:37.892Z,9.01
2022-10-11T08:02:37.842Z,9.03
2022-10-11T08:03:37.848Z,9.04
2022-10-11T08:04:37.901Z,9.06
2022-10-11T08:05:37.819Z,9.08
2022-10-11T08:06:37.827Z,9.11
2022-10-11T08:07:37.767Z,9.11
2022-10-11T08:08:37.806Z,9.12
2022-10-11T08:09:37.766Z,9.15
2022-10-11T08:10:37.798Z,9.18
2022-10-11T08:11:37.880Z,9.22
2022-10-11T08:12:37.728Z,9.24
2022-10-11T08:13:37.716Z,9.27
2022-10-11T08:14:37.696Z,9.32
2022-10-11T08:15:37.715Z,9.34
2022-10-11T08:16:37.683Z,9.40
2022-10-11T08:17:37.725Z,9.41
2022-10-11T08:18:37.683Z,9.47
2022-10-11T08:19:37.692Z,9.52
2022-10-11T08:20:37.701Z,9.59
2022-10-11T08:21:37.618Z,9.65
2022-10-11T08:22:37.643Z,9.69
2022-10-11T08:23:37.595Z,9.75
2022-10-11T08:24:38.520Z,9.80
2022-10-11T08:25:37.608Z,9.84
2022-10-11T08:26:37.566Z,9.85
2022-10-11T08:27:37.560Z,9.88
2022-10-11T08:28:37.671Z,9.91
2022-10-11T08:29:37.567Z,9.94
2022-10-11T08:30:37.524Z,10.01
2022-10-11T08:31:37.575Z,10.05
2022-10-11T08:32:37.496Z,10.09
2022-10-11T08:33:37.489Z,10.12
2022-10-11T08:34:37.510Z,10.16
2022-10-11T08:35:37.493Z,10.18
2022-10-11T08:36:37.461Z,10.23
2022-10-11T08:37:37.436Z,10.26
2022-10-11T08:38:37.492Z,10.30
2022-10-11T08:39:37.446Z,10.34
2022-10-11T08:40:37.436Z,10.36
2022-10-11T08:41:37.397Z,10.42
2022-10-11T08:42:37.413Z,10.46
2022-10-11T08:43:37.375Z,10.48
2022-10-11T08:45:05.617Z,10.54
2022-10-11T08:45:38.359Z,10.57
2022-10-11T08:46:37.407Z,10.58
2022-10-11T08:47:37.366Z,10.62
2022-10-11T08:48:37.325Z,10.67
2022-10-11T08:49:37.305Z,10.72
2022-10-11T08:50:37.308Z,10.78
2022-10-11T08:51:37.295Z,10.82
2022-10-11T08:52:37.285Z,10.85
2022-10-11T08:53:37.484Z,10.90
2022-10-11T08:54:37.356Z,10.93
2022-10-11T08:55:37.256Z,10.95
2022-10-11T08:56:37.242Z,10.98
2022-10-11T08:57:37.228Z,11.01
2022-10-11T08:58:37.237Z,11.01
2022-10-11T08:59:37.204Z,11.04
2022-10-11T09:00:40.867Z,11.09
2022-10-11T09:01:37.384Z,11.12
2022-10-11T09:03:02.841Z,11.18
2022-10-11T09:03:38.173Z,11.19
2022-10-11T09:04:37.156Z,11.22
2022-10-11T09:05:37.145Z,11.23
2022-10-11T09:06:47.955Z,11.23
2022-10-11T09:07:37.114Z,11.27
2022-10-11T09:08:37.116Z,11.30
2022-10-11T09:09:37.106Z,11.34
2022-10-11T09:10:37.085Z,11.40
2022-10-11T09:11:37.066Z,11.45
2022-10-11T09:12:40.643Z,11.49
2022-10-11T09:13:37.043Z,11.51
2022-10-11T09:14:37.071Z,11.51
2022-10-11T09:15:37.034Z,11.51
2022-10-11T09:16:37.042Z,11.52
2022-10-11T09:17:37.003Z,11.55
2022-10-11T09:18:37.049Z,11.55
2022-10-11T09:19:36.984Z,11.56
2022-10-11T09:20:36.990Z,11.61
2022-10-11T09:21:36.978Z,11.61
2022-10-11T09:22:36.956Z,11.64
2022-10-11T09:23:36.934Z,11.73
2022-10-11T09:24:37.079Z,11.80
2022-10-11T09:25:43.985Z,11.85
2022-10-11T09:26:36.921Z,11.88
2022-10-11T09:28:01.341Z,11.91
2022-10-11T09:28:37.907Z,11.96
2022-10-11T09:29:36.861Z,12.00
2022-10-11T09:30:36.861Z,12.04
2022-10-11T09:31:36.868Z,12.07
2022-10-11T09:32:36.861Z,12.10
2022-10-11T09:33:36.822Z,12.13
2022-10-11T09:34:36.810Z,12.15
2022-10-11T09:35:36.799Z,12.21
2022-10-11T09:36:36.830Z,12.23
2022-10-11T09:37:36.804Z,12.26
2022-10-11T09:38:36.771Z,12.28
2022-10-11T09:39:36.772Z,12.33
2022-10-11T09:40:36.770Z,12.40
2022-10-11T09:41:36.741Z,12.43
2022-10-11T09:42:36.741Z,12.44
2022-10-11T09:43:36.745Z,12.44
2022-10-11T09:44:36.711Z,12.47
2022-10-11T09:45:36.713Z,12.47
2022-10-11T09:46:36.683Z,12.50
2022-10-11T09:47:36.669Z,12.50
2022-10-11T09:48:36.660Z,12.51
2022-10-11T09:49:36.641Z,12.53
2022-10-11T09:50:36.689Z,12.54
2022-10-11T09:51:36.663Z,12.55
2022-10-11T09:52:36.630Z,12.59
2022-10-11T09:53:36.613Z,12.59
2022-10-11T09:54:36.669Z,12.62
2022-10-11T09:55:36.578Z,12.68
2022-10-11T09:56:36.569Z,12.69
2022-10-11T09:57:36.582Z,12.71
2022-10-11T09:58:36.580Z,12.73
2022-10-11T09:59:36.546Z,12.76
2022-10-11T10:00:36.540Z,12.79
2022-10-11T10:01:36.614Z,12.84
2022-10-11T10:02:36.527Z,12.88
2022-10-11T10:03:36.510Z,12.93
2022-10-11T10:04:36.500Z,12.98
2022-10-11T10:05:36.488Z,13.02
2022-10-11T10:06:36.492Z,13.05
2022-10-11T10:07:39.409Z,13.09
2022-10-11T10:08:36.542Z,13.13
2022-10-11T10:09:36.431Z,13.13
2022-10-11T10:10:36.432Z,13.16
2022-10-11T10:11:36.462Z,13.20
2022-10-11T10:12:36.409Z,13.21
2022-10-11T10:13:36.403Z,13.23
2022-10-11T10:14:36.387Z,13.23
2022-10-11T10:15:36.388Z,13.24
2022-10-11T10:16:44.849Z,13.27
2022-10-11T10:17:36.366Z,13.26
2022-10-11T10:18:36.351Z,13.27
2022-10-11T10:19:38.890Z,13.29
2022-10-11T10:20:36.319Z,13.27
2022-10-11T10:21:36.329Z,13.24
2022-10-11T10:22:36.319Z,13.23
2022-10-11T10:23:36.278Z,13.21
2022-10-11T10:24:36.269Z,13.21
2022-10-11T10:25:40.882Z,13.21
2022-10-11T10:26:37.283Z,13.20
2022-10-11T10:27:36.240Z,13.19
2022-10-11T10:28:36.273Z,13.16
2022-10-11T10:29:36.218Z,13.13
2022-10-11T10:30:36.247Z,13.11
2022-10-11T10:31:49.540Z,13.11
2022-10-11T10:32:37.189Z,13.09
2022-10-11T10:33:36.198Z,13.13
2022-10-11T10:34:36.176Z,13.14
2022-10-11T10:35:36.149Z,13.14
2022-10-11T10:36:36.139Z,13.14
2022-10-11T10:37:36.130Z,13.16
2022-10-11T10:38:36.176Z,13.16
2022-10-11T10:39:36.110Z,13.19
2022-10-11T10:40:36.101Z,13.19
2022-10-11T10:41:36.110Z,13.20
2022-10-11T10:42:36.090Z,13.23
2022-10-11T10:43:36.071Z,13.29
2022-10-11T10:44:36.059Z,13.32
2022-10-11T10:45:36.039Z,13.39
2022-10-11T10:46:36.044Z,13.42
2022-10-11T10:47:36.167Z,13.45
2022-10-11T10:49:02.040Z,13.47
2022-10-11T10:49:54.563Z,13.51
2022-10-11T10:50:36.989Z,13.55
2022-10-11T10:51:35.982Z,13.58
2022-10-11T10:52:36.025Z,13.58
2022-10-11T10:53:35.979Z,13.60
2022-10-11T10:54:35.949Z,13.61
2022-10-11T10:55:35.959Z,13.64
2022-10-11T10:56:35.950Z,13.68
2022-10-11T10:57:35.952Z,13.73
2022-10-11T10:58:35.908Z,13.76
2022-10-11T10:59:35.889Z,13.78
2022-10-11T11:00:35.880Z,13.79
2022-10-11T11:01:35.934Z,13.83
2022-10-11T11:02:40.689Z,13.82
2022-10-11T11:03:36.920Z,13.85
2022-10-11T11:04:39.929Z,13.90
2022-10-11T11:05:35.819Z,13.90
2022-10-11T11:06:36.681Z,13.93
2022-10-11T11:07:35.849Z,13.91
2022-10-11T11:08:35.789Z,13.90
2022-10-11T11:09:35.780Z,13.86
2022-10-11T11:10:35.772Z,13.86
2022-10-11T11:11:38.302Z,13.83
2022-10-11T11:12:35.769Z,13.83
2022-10-11T11:13:35.735Z,13.80
2022-10-11T11:14:35.728Z,13.79
2022-10-11T11:15:38.103Z,13.78
2022-10-11T11:16:35.706Z,13.78
2022-10-11T11:17:35.699Z,13.76
2022-10-11T11:18:35.808Z,13.75
2022-10-11T11:19:35.680Z,13.73
2022-10-11T11:20:35.678Z,13.71
2022-10-11T11:22:46.021Z,13.67
2022-10-11T11:23:46.024Z,13.63
2022-10-11T11:24:48.620Z,13.60
2022-10-11T11:25:45.971Z,13.58
2022-10-11T11:26:45.990Z,13.54
2022-10-11T11:27:45.954Z,13.54
2022-10-11T11:28:45.992Z,13.55
2022-10-11T11:29:45.930Z,13.55
2022-10-11T11:30:45.920Z,13.55
2022-10-11T11:31:45.940Z,13.57
2022-10-11T11:32:46.029Z,13.61
2022-10-11T11:33:48.800Z,13.64
2022-10-11T11:34:45.870Z,13.65
2022-10-11T11:35:45.872Z,13.71
2022-10-11T11:36:45.880Z,13.71
2022-10-11T11:37:45.879Z,13.71
2022-10-11T11:38:45.844Z,13.72
2022-10-11T11:39:45.837Z,13.73
2022-10-11T11:40:45.814Z,13.76
2022-10-11T11:41:45.811Z,13.79
2022-10-11T11:42:45.819Z,13.79
2022-10-11T11:43:45.811Z,13.80
2022-10-11T11:44:45.779Z,13.83
2022-10-11T11:45:45.774Z,13.86
2022-10-11T11:46:45.750Z,13.93
2022-10-11T11:47:46.003Z,13.98
2022-10-11T11:48:45.735Z,14.01
2022-10-11T11:49:45.729Z,14.03
2022-10-11T11:50:45.751Z,14.05
2022-10-11T11:51:45.702Z,14.08
2022-10-11T11:52:45.722Z,14.09
2022-10-11T11:53:45.678Z,14.13
2022-10-11T11:54:45.668Z,14.13
2022-10-11T11:55:45.662Z,14.12
2022-10-11T11:56:45.656Z,14.15
2022-10-11T11:57:45.646Z,14.15
2022-10-11T11:58:45.650Z,14.18
2022-10-11T11:59:45.612Z,14.21
2022-10-11T12:00:50.870Z,14.23
2022-10-11T12:01:45.666Z,14.27
2022-10-11T12:02:45.582Z,14.31
2022-10-11T12:03:45.571Z,14.34
2022-10-11T12:04:45.569Z,14.36
2022-10-11T12:05:45.551Z,14.36
2022-10-11T12:07:14.531Z,14.37
2022-10-11T12:07:46.532Z,14.37
2022-10-11T12:08:45.520Z,14.34
2022-10-11T12:09:45.502Z,14.36
2022-10-11T12:10:45.500Z,14.34
2022-10-11T12:11:45.678Z,14.33
2022-10-11T12:12:45.472Z,14.33
2022-10-11T12:13:45.461Z,14.30
2022-10-11T12:14:45.450Z,14.28
2022-10-11T12:15:45.456Z,14.27
2022-10-11T12:16:45.421Z,14.27
2022-10-11T12:17:45.442Z,14.23
2022-10-11T12:18:45.402Z,14.23
2022-10-11T12:19:45.390Z,14.22
2022-10-11T12:20:45.410Z,14.22
2022-10-11T12:21:45.372Z,14.26
2022-10-11T12:22:45.380Z,14.27
2022-10-11T12:23:45.350Z,14.30
2022-10-11T12:24:45.521Z,14.33
2022-10-11T12:25:45.332Z,14.36
2022-10-11T12:26:45.321Z,14.38
2022-10-11T12:27:45.312Z,14.44
2022-10-11T12:28:45.378Z,14.46
2022-10-11T12:29:45.290Z,14.49
2022-10-11T12:30:52.321Z,14.49
2022-10-11T12:31:46.276Z,14.51
2022-10-11T12:32:45.252Z,14.51
2022-10-11T12:33:45.241Z,14.53
2022-10-11T12:34:45.232Z,14.55
2022-10-11T12:35:45.261Z,14.53
2022-10-11T12:36:45.620Z,14.53
2022-10-11T12:37:45.201Z,14.53
2022-10-11T12:38:45.182Z,14.52
2022-10-11T12:39:45.180Z,14.51
2022-10-11T12:40:45.170Z,14.51
2022-10-11T12:41:45.230Z,14.52
2022-10-11T12:42:45.178Z,14.51
2022-10-11T12:43:45.142Z,14.52
2022-10-11T12:44:45.130Z,14.52
2022-10-11T12:45:45.112Z,14.53
2022-10-11T12:46:45.111Z,14.55
2022-10-11T12:47:45.167Z,14.56
2022-10-11T12:48:45.100Z,14.61
2022-10-11T12:49:45.070Z,14.63
2022-10-11T12:50:45.079Z,14.64
2022-10-11T12:51:45.048Z,14.66
2022-10-11T12:52:45.067Z,14.69
2022-10-11T12:53:48.126Z,14.69
2022-10-11T12:54:46.020Z,14.67
2022-10-11T12:55:45.014Z,14.69
2022-10-11T12:56:44.990Z,14.67
2022-10-11T12:57:46.360Z,14.67
2022-10-11T12:58:44.969Z,14.70
2022-10-11T12:59:44.970Z,14.70
2022-10-11T13:00:44.950Z,14.73
2022-10-11T13:01:45.009Z,14.77
2022-10-11T13:02:44.922Z,14.79
2022-10-11T13:03:44.954Z,14.79
2022-10-11T13:04:50.037Z,14.82
2022-10-11T13:05:46.321Z,14.82
2022-10-11T13:06:44.890Z,14.83
2022-10-11T13:07:44.881Z,14.83
2022-10-11T13:08:44.860Z,14.86
2022-10-11T13:09:48.999Z,14.87
2022-10-11T13:10:44.841Z,14.90